Curtin Springs, Northern Territory

7:45 PM CST on August 20, 2014 (GMT +0930)
Ayers Rock (Connellan) | Change Station
CLOSE
Current Station
Airport
Location: Ayers Rock,
Elevation: 1627 ft
Nearby Weather Stations

Elev 1627 ft 25.19 °S, 130.98 °E | Updated 15 minutes ago

Clear
Clear
59 °F
Feels Like 59 °F
N
4
Wind Variable Wind from East

Today
High -- | Low -- °F
--% Chance of Precip.
Yesterday
High -- | Low -- °F
Precip. -- in
7:06 AM 6:26 PM
Waning Crescent, 23% visible
Pressure 30.09 in
Visibility 6.2 miles
Clouds
Dew Point 23 °F
Humidity 25%
Rainfall 0.00 in
Snow Depth Not available.
UV Not available.
Pollen Not available.
Air Quality Not available.
Flu Activity Not available.
METAR YAYE 201000Z AUTO 10003KT 9999 // NCD 15/M05 Q1019

More Conditions Fewer Conditions

Pressure 30.09 in
Visibility 6.2 miles
Clouds
Dew Point 23 °F
Humidity 25%
Rainfall 0.00 in
Snow Depth Not available.
UV Not available.
Pollen Not available.
Air Quality Not available.
Flu Activity Not available.
METAR YAYE 201000Z AUTO 10003KT 9999 // NCD 15/M05 Q1019

More Conditions Fewer Conditions

10-Day Weather Forecast

Almanac

Astronomy

Aug. 20, 2014 Rise Set
Actual Time 7:06 AM CST 6:26 PM CST
Civil Twilight 6:43 AM CST 6:49 PM CST
Nautical Twilight 6:16 AM CST 7:16 PM CST
Astronomical Twilight 5:49 AM CST 7:43 PM CST
Moon 2:55 AM CST 2:02 PM CST
Length of Visible Light 12h 06m
Length of Day
11h 19m
Tomorrow will be 1m 19s longer.
Waning Crescent, 23% of the Moon is Illuminated
Today
Waning Crescent
Aug 25
New
Sep 2
First Quarter
Sep 8
Full
Sep 15
Last Quarter

Yesterday's Extremes

Country Highs Country Lows

Community

WunderPhotos

Upload Photos

1,745,604 photos uploaded!

Nearby

Snow Depth

Not available.

Earthquake Activity

City Distance Mag. Time & Date
No recent earthquake activity has been reported nearby.
Minimum magnitude displayed is 2.5.

Coastal Water Temperatures

Place Temperature
No Stations Reporting

Nearby Weather Stations